createdAt,value
2018-03-02T00:02:18.800Z,9.20
2018-03-02T00:06:26.439Z,6.67
2018-03-02T00:10:33.774Z,7.93
2018-03-02T00:14:38.656Z,7.00
2018-03-02T00:18:43.092Z,5.97
2018-03-02T00:22:49.305Z,7.73
2018-03-02T00:26:54.421Z,10.17
2018-03-02T00:30:58.873Z,6.63
2018-03-02T00:35:05.636Z,7.27
2018-03-02T00:39:10.642Z,5.27
2018-03-02T00:43:16.032Z,5.73
2018-03-02T00:47:22.848Z,8.50
2018-03-02T00:51:28.309Z,7.83
2018-03-02T00:55:36.151Z,6.87
2018-03-02T00:59:43.443Z,8.87
2018-03-02T01:03:48.058Z,8.60
2018-03-02T01:07:53.182Z,6.53
2018-03-02T01:16:14.550Z,6.33
2018-03-02T01:20:26.212Z,6.50
2018-03-02T01:24:32.787Z,7.30
2018-03-02T01:28:41.673Z,6.17
2018-03-02T01:32:46.822Z,5.47
2018-03-02T01:36:52.198Z,5.70
2018-03-02T01:40:58.580Z,4.50
2018-03-02T01:45:05.042Z,4.87
2018-03-02T01:49:10.600Z,5.80
2018-03-02T01:53:16.414Z,5.50
2018-03-02T01:57:22.600Z,5.03
2018-03-02T02:01:28.572Z,6.87
2018-03-02T02:05:33.079Z,7.30
2018-03-02T02:09:36.932Z,6.67
2018-03-02T02:13:41.924Z,6.80
2018-03-02T02:21:58.379Z,8.67
2018-03-02T02:26:03.240Z,6.70
2018-03-02T02:30:11.000Z,9.67
2018-03-02T02:34:15.440Z,9.93
2018-03-02T02:38:21.688Z,6.60
2018-03-02T02:42:26.919Z,4.70
2018-03-02T02:46:34.154Z,7.77
2018-03-02T02:50:39.914Z,7.63
2018-03-02T02:54:46.343Z,6.23
2018-03-02T02:58:51.846Z,8.00
2018-03-02T03:02:58.419Z,7.63
2018-03-02T03:07:07.323Z,7.00
2018-03-02T03:11:11.533Z,8.20
2018-03-02T03:15:17.740Z,6.43
2018-03-02T03:19:23.277Z,8.10
2018-03-02T03:23:27.786Z,6.80
2018-03-02T03:27:33.931Z,8.47
2018-03-02T03:31:39.580Z,8.40
2018-03-02T03:35:44.467Z,5.87
2018-03-02T03:39:51.498Z,7.80
2018-03-02T03:43:59.572Z,9.03
2018-03-02T04:06:28.458Z,10.27
2018-03-02T04:15:19.769Z,9.23
2018-03-02T04:19:31.768Z,11.23
2018-03-02T04:23:44.056Z,11.83
2018-03-02T04:42:05.677Z,9.63
2018-03-02T04:46:35.238Z,9.67
2018-03-02T04:50:38.852Z,10.37
2018-03-02T04:54:42.208Z,10.67
2018-03-02T04:58:45.702Z,9.97
2018-03-02T05:02:49.043Z,7.30
2018-03-02T05:06:52.435Z,9.37
2018-03-02T05:10:55.842Z,8.33
2018-03-02T05:14:59.268Z,7.37
2018-03-02T05:19:03.496Z,7.97
2018-03-02T05:23:07.666Z,8.80
2018-03-02T05:27:11.047Z,6.60
2018-03-02T05:31:14.398Z,6.83
2018-03-02T05:35:17.859Z,7.63
2018-03-02T05:39:21.296Z,10.47
2018-03-02T05:43:24.716Z,7.90
2018-03-02T05:47:28.239Z,10.33
2018-03-02T05:51:32.464Z,8.93
2018-03-02T06:00:41.380Z,12.60
2018-03-02T06:04:44.736Z,9.70
2018-03-02T06:08:48.859Z,11.23
2018-03-02T06:12:52.984Z,11.80
2018-03-02T06:16:57.087Z,18.00
2018-03-02T06:21:00.455Z,17.03
2018-03-02T06:25:03.914Z,9.60
2018-03-02T06:29:08.065Z,8.00
